Terminal Aerodrome Forecast
Issued by NWS

Home | Current Version | Previous Version | Text Only | Print | Product List | Glossary On
Versions: 1 2 3 4 5 6 7 8 9 10 11 12 13 14 15 16 17 18 19 20 21 22 23 24 25 26 27
685
FTUS46 KSEW 060300 AAA
TAFSEA
TAF AMD
KSEA 060300Z 0603/0706 14005KT P6SM VCSH FEW008 BKN027 OVC190
     FM060900 04005KT P6SM BKN008 OVC015
     FM061600 03007KT P6SM SCT020 BKN035
     FM062000 02007KT P6SM SCT050=

USA.gov is the U.S. government's official web portal to all federal, state and local government web resources and services.